createdAt,value
2022-11-24T08:29:33.746Z,723.00
2022-11-24T08:29:48.746Z,710.00
2022-11-24T08:30:03.707Z,702.00
2022-11-24T08:30:19.691Z,697.00
2022-11-24T08:30:41.746Z,690.00
2022-11-24T08:30:55.961Z,688.00
2022-11-24T08:31:05.895Z,683.00
2022-11-24T08:31:22.605Z,680.00
2022-11-24T08:31:34.114Z,678.00
2022-11-24T08:31:48.902Z,675.00
2022-11-24T08:32:03.811Z,672.00
2022-11-24T08:32:22.327Z,668.00
2022-11-24T08:32:33.960Z,666.00
2022-11-24T08:32:53.466Z,665.00
2022-11-24T08:33:03.749Z,665.00
2022-11-24T08:33:20.927Z,666.00
2022-11-24T08:33:33.752Z,668.00
2022-11-24T08:33:54.052Z,673.00
2022-11-24T08:34:04.370Z,752.00
2022-11-24T08:34:32.334Z,764.00
2022-11-24T08:34:47.907Z,765.00
2022-11-24T08:34:49.006Z,767.00
2022-11-24T08:35:19.424Z,760.00
2022-11-24T08:35:21.749Z,756.00
2022-11-24T08:35:34.321Z,748.00
2022-11-24T12:24:57.795Z,836.00
2022-11-24T12:25:12.663Z,769.00
2022-11-24T12:25:27.672Z,756.00
2022-11-24T12:25:42.663Z,754.00
2022-11-24T12:25:57.702Z,753.00
2022-11-24T12:26:12.718Z,751.00
2022-11-24T12:26:27.642Z,751.00
2022-11-24T12:26:42.647Z,748.00
2022-11-24T12:26:57.701Z,748.00
2022-11-24T12:27:14.810Z,751.00
2022-11-24T12:27:28.660Z,758.00
2022-11-24T12:27:42.637Z,764.00
2022-11-24T12:27:57.646Z,778.00
2022-11-24T12:28:12.652Z,833.00
2022-11-24T12:28:27.625Z,853.00
2022-11-24T12:28:42.636Z,858.00
2022-11-24T12:28:57.619Z,856.00
2022-11-24T12:29:12.638Z,856.00
2022-11-24T12:29:27.659Z,854.00
2022-11-24T12:29:42.656Z,850.00
2022-11-24T12:29:57.645Z,848.00
2022-11-24T12:30:12.788Z,845.00
2022-11-24T12:30:27.689Z,844.00
2022-11-24T12:30:42.639Z,846.00
2022-11-24T12:30:57.746Z,844.00
2022-11-24T12:31:12.749Z,844.00
2022-11-24T12:31:27.816Z,847.00
2022-11-24T12:31:42.677Z,850.00
2022-11-24T12:31:57.605Z,853.00
2022-11-24T12:32:12.601Z,916.00
2022-11-24T12:32:27.584Z,940.00
2022-11-24T12:32:42.610Z,941.00
2022-11-24T12:32:57.628Z,939.00
2022-11-24T12:33:12.651Z,933.00
2022-11-24T12:33:27.626Z,928.00
2022-11-24T12:33:47.582Z,928.00
2022-11-24T12:34:01.392Z,926.00
2022-11-24T12:34:12.626Z,924.00
2022-11-24T12:34:27.593Z,922.00
2022-11-24T12:34:42.599Z,919.00
2022-11-24T12:34:57.627Z,917.00
2022-11-24T12:35:12.595Z,910.00
2022-11-24T12:35:27.580Z,902.00
2022-11-24T12:35:42.640Z,881.00
2022-11-24T12:35:57.619Z,859.00
2022-11-24T12:36:12.621Z,855.00
2022-11-24T12:36:27.594Z,855.00
2022-11-24T12:36:42.571Z,862.00
2022-11-24T12:36:57.589Z,865.00
2022-11-24T12:37:12.616Z,868.00
2022-11-24T12:37:27.610Z,871.00
2022-11-24T12:37:42.606Z,871.00
2022-11-24T12:37:57.599Z,876.00
2022-11-24T12:38:12.633Z,880.00
2022-11-24T12:38:27.575Z,882.00
2022-11-24T12:38:42.574Z,885.00
2022-11-24T12:38:57.584Z,889.00
2022-11-24T12:39:12.588Z,893.00
2022-11-24T12:39:27.605Z,893.00
2022-11-24T12:39:42.607Z,896.00
2022-11-24T12:39:57.545Z,900.00
2022-11-24T12:40:12.598Z,903.00
2022-11-24T12:40:27.586Z,908.00
2022-11-24T12:40:46.838Z,911.00
2022-11-24T12:41:18.073Z,921.00
2022-11-24T12:41:43.538Z,947.00
2022-11-24T12:41:43.956Z,949.00
2022-11-24T12:41:57.591Z,947.00
2022-11-24T12:42:12.561Z,947.00
2022-11-24T12:42:27.544Z,946.00
2022-11-24T12:42:42.554Z,946.00
2022-11-24T12:42:57.553Z,949.00
2022-11-24T12:43:12.548Z,953.00
2022-11-24T12:43:27.570Z,957.00
2022-11-24T12:43:42.571Z,961.00
2022-11-24T12:43:57.539Z,963.00
2022-11-24T12:44:12.559Z,964.00
2022-11-24T12:44:27.535Z,966.00
2022-11-24T12:44:42.573Z,969.00
2022-11-24T12:44:57.544Z,974.00
2022-11-24T12:45:12.557Z,1008.00
2022-11-24T12:45:27.553Z,1021.00
2022-11-24T12:45:42.510Z,1027.00
2022-11-24T12:45:57.550Z,1032.00
2022-11-24T12:46:17.263Z,1037.00
2022-11-24T12:46:28.614Z,1040.00
2022-11-24T12:46:42.581Z,1043.00
2022-11-24T12:46:57.566Z,1044.00
2022-11-24T12:47:12.727Z,1049.00
2022-11-24T12:47:27.538Z,1053.00
2022-11-24T12:47:42.555Z,1057.00
2022-11-24T12:47:57.525Z,1060.00
2022-11-24T12:48:12.515Z,1063.00
2022-11-24T12:48:27.515Z,1065.00
2022-11-24T12:48:42.523Z,1069.00
2022-11-24T12:48:57.555Z,1073.00
2022-11-24T12:49:12.528Z,1075.00
2022-11-24T12:49:27.513Z,1078.00
2022-11-24T12:49:42.520Z,1079.00
2022-11-24T12:49:57.541Z,1082.00
2022-11-24T12:50:12.481Z,1084.00
2022-11-24T12:50:27.520Z,1087.00
2022-11-24T12:50:42.771Z,1088.00
2022-11-24T12:50:57.517Z,1092.00
2022-11-24T12:51:12.520Z,1094.00
2022-11-24T12:51:27.511Z,1102.00
2022-11-24T12:51:42.530Z,1107.00
2022-11-24T12:51:57.516Z,1108.00
2022-11-24T12:52:12.488Z,1107.00
2022-11-24T12:52:27.507Z,1110.00
2022-11-24T12:52:42.507Z,1110.00
2022-11-24T12:52:59.073Z,1110.00
2022-11-24T12:53:12.534Z,1107.00
2022-11-24T12:53:27.510Z,1104.00
2022-11-24T12:53:42.482Z,1100.00
2022-11-24T12:53:57.491Z,1097.00
2022-11-24T12:54:12.487Z,1094.00
2022-11-24T12:54:27.522Z,1094.00
2022-11-24T12:54:42.489Z,1096.00
2022-11-24T12:54:57.504Z,1099.00
2022-11-24T12:55:12.503Z,1103.00
2022-11-24T12:55:27.476Z,1106.00
2022-11-24T12:55:42.490Z,1109.00
2022-11-24T12:55:57.510Z,1122.00
2022-11-24T12:56:12.494Z,1129.00
2022-11-24T12:56:27.499Z,1139.00
2022-11-24T12:56:42.504Z,1145.00
2022-11-24T12:56:57.478Z,1153.00
2022-11-24T12:57:12.511Z,1157.00
2022-11-24T12:57:27.487Z,1163.00
2022-11-24T12:57:42.497Z,1167.00
2022-11-24T12:57:57.479Z,1172.00
2022-11-24T12:58:12.486Z,1176.00
2022-11-24T12:58:27.520Z,1178.00
2022-11-24T12:58:42.479Z,1182.00
2022-11-24T12:58:57.505Z,1186.00
2022-11-24T12:59:12.462Z,1188.00
2022-11-24T12:59:27.509Z,1188.00
2022-11-24T12:59:42.455Z,1193.00
2022-11-24T12:59:57.478Z,1195.00
2022-11-24T13:00:12.469Z,1199.00
2022-11-24T13:00:27.481Z,1202.00
2022-11-24T13:00:42.491Z,1206.00
2022-11-24T13:00:57.433Z,1210.00
2022-11-24T13:01:16.418Z,1211.00
2022-11-24T13:01:27.482Z,1215.00
2022-11-24T13:01:42.524Z,1215.00
2022-11-24T13:01:57.582Z,1220.00
2022-11-24T13:02:12.505Z,1223.00
2022-11-24T13:02:27.530Z,1226.00
2022-11-24T13:02:42.569Z,1228.00
2022-11-24T13:02:57.576Z,1269.00
2022-11-24T13:03:12.507Z,1366.00
2022-11-24T13:03:27.435Z,3854.00
2022-11-24T13:03:42.433Z,4129.00
2022-11-24T13:03:57.445Z,4125.00
2022-11-24T13:04:12.461Z,3859.00
2022-11-24T13:04:27.452Z,3713.00
2022-11-24T13:04:42.466Z,3346.00
2022-11-24T13:04:57.432Z,2998.00
2022-11-24T13:05:12.447Z,2657.00
2022-11-24T13:05:27.426Z,2367.00
2022-11-24T13:05:42.421Z,2156.00
2022-11-24T13:05:57.443Z,2006.00
2022-11-24T13:06:12.448Z,1936.00
2022-11-24T13:06:27.451Z,1757.00
2022-11-24T13:06:48.803Z,1742.00
2022-11-24T13:06:58.437Z,1715.00
2022-11-24T13:07:12.511Z,1623.00
2022-11-24T13:19:00.731Z,1356.00
2022-11-24T13:19:15.645Z,1351.00
2022-11-24T13:19:30.742Z,1333.00
2022-11-24T13:19:45.662Z,1333.00
2022-11-24T13:20:00.670Z,1327.00
2022-11-24T13:20:15.659Z,1324.00
2022-11-24T13:20:30.670Z,1319.00
2022-11-24T13:20:45.680Z,1321.00
2022-11-24T13:21:00.671Z,1331.00
2022-11-24T13:21:15.675Z,1329.00
2022-11-24T13:21:30.633Z,1332.00
2022-11-24T13:21:45.666Z,1336.00
2022-11-24T13:22:00.664Z,1336.00
2022-11-24T13:22:15.663Z,1340.00
2022-11-24T13:22:30.634Z,1349.00
2022-11-24T13:22:45.637Z,1350.00
2022-11-24T13:23:00.660Z,1353.00
2022-11-24T13:23:15.610Z,1360.00
2022-11-24T13:23:30.837Z,1360.00
2022-11-24T13:23:45.651Z,1362.00
2022-11-24T13:24:00.661Z,1362.00
2022-11-24T13:24:30.639Z,1350.00
2022-11-24T13:24:45.660Z,1345.00
2022-11-24T13:25:00.627Z,1350.00
2022-11-24T13:25:15.620Z,1349.00
2022-11-24T13:25:30.619Z,1350.00
2022-11-24T13:25:45.625Z,1354.00
2022-11-24T13:26:00.717Z,1356.00
2022-11-24T13:26:15.606Z,1360.00
2022-11-24T13:26:30.637Z,1366.00
2022-11-24T13:26:45.646Z,1375.00
2022-11-24T13:27:00.641Z,1363.00
2022-11-24T13:27:15.963Z,1399.00
2022-11-24T13:27:30.616Z,1392.00
2022-11-24T13:27:45.639Z,1406.00
2022-11-24T13:28:00.633Z,1404.00
2022-11-24T13:28:20.345Z,1411.00
2022-11-24T13:29:00.393Z,1416.00
2022-11-24T13:29:03.206Z,1419.00
2022-11-24T13:29:12.924Z,1418.00
2022-11-24T13:29:24.975Z,1421.00
2022-11-24T13:29:31.575Z,1420.00
2022-11-24T13:29:45.622Z,1420.00
2022-11-24T13:30:00.634Z,1422.00
2022-11-24T13:30:15.645Z,1412.00
2022-11-24T13:30:30.608Z,1462.00
2022-11-24T13:30:45.609Z,1468.00
2022-11-24T13:31:00.663Z,1459.00
2022-11-24T13:31:15.680Z,1459.00
2022-11-24T13:31:30.675Z,1457.00
2022-11-24T13:31:45.684Z,1456.00
2022-11-24T13:32:00.603Z,1452.00
2022-11-24T13:32:15.615Z,1451.00
2022-11-24T13:32:30.614Z,1453.00
2022-11-24T13:32:45.606Z,1449.00
2022-11-24T13:33:00.628Z,1445.00
2022-11-24T13:33:17.088Z,1443.00
2022-11-24T13:33:30.793Z,1442.00
2022-11-24T13:33:45.593Z,1443.00
2022-11-24T13:34:00.621Z,1440.00
2022-11-24T13:34:15.663Z,1438.00
2022-11-24T13:34:30.569Z,1438.00
2022-11-24T13:34:45.622Z,1440.00
2022-11-24T13:35:00.596Z,1445.00
2022-11-24T13:35:15.747Z,1451.00
2022-11-24T13:35:30.577Z,1456.00
2022-11-24T13:35:45.698Z,1458.00
2022-11-24T13:36:00.590Z,1458.00
2022-11-24T13:36:15.591Z,1461.00
2022-11-24T13:36:30.630Z,1462.00
2022-11-24T13:36:45.563Z,1461.00
2022-11-24T13:37:26.413Z,1462.00
2022-11-24T13:37:31.681Z,1466.00
2022-11-24T13:37:35.773Z,1465.00
2022-11-24T13:37:45.558Z,1467.00
2022-11-24T13:38:00.567Z,1467.00
2022-11-24T13:38:15.563Z,1466.00
2022-11-24T13:38:30.670Z,1467.00
2022-11-24T13:38:45.673Z,1466.00
2022-11-24T13:39:00.623Z,1466.00
2022-11-24T13:39:15.554Z,1467.00
2022-11-24T13:39:30.575Z,1467.00
2022-11-24T13:39:50.174Z,1468.00
2022-11-24T13:40:01.551Z,1468.00
2022-11-24T13:40:15.572Z,1469.00
2022-11-24T13:40:30.570Z,1470.00
2022-11-24T13:41:13.014Z,1471.00
2022-11-24T13:41:27.090Z,1473.00
2022-11-24T13:41:28.225Z,1476.00
2022-11-24T13:41:31.661Z,1479.00
2022-11-24T13:41:45.655Z,1488.00
2022-11-24T13:42:00.618Z,1499.00
2022-11-24T13:42:42.106Z,1502.00
2022-11-24T13:42:42.235Z,1506.00
2022-11-24T13:42:46.643Z,1510.00
2022-11-24T13:43:00.762Z,1514.00
2022-11-24T13:43:15.587Z,1513.00
2022-11-24T13:43:30.601Z,1518.00
2022-11-24T13:43:45.633Z,1521.00
2022-11-24T13:44:00.639Z,1525.00
2022-11-24T13:44:15.633Z,1528.00
2022-11-24T13:44:30.603Z,1531.00
2022-11-24T13:44:45.616Z,1532.00
2022-11-24T13:45:00.600Z,1535.00
2022-11-24T13:45:15.779Z,1538.00
2022-11-24T13:45:30.609Z,1540.00
2022-11-24T13:45:45.605Z,1546.00
2022-11-24T13:46:00.605Z,1551.00
2022-11-24T13:46:15.792Z,1563.00
2022-11-24T13:46:30.659Z,1567.00
2022-11-24T13:46:45.706Z,1566.00
2022-11-24T13:47:05.743Z,1567.00
2022-11-24T13:47:16.670Z,1565.00
2022-11-24T13:47:30.607Z,1566.00
2022-11-24T13:47:45.700Z,1569.00
2022-11-24T13:48:00.617Z,1573.00
2022-11-24T13:48:15.636Z,1580.00
2022-11-24T13:48:30.595Z,1594.00
2022-11-24T13:48:45.736Z,1603.00
2022-11-24T13:49:00.561Z,1609.00
2022-11-24T13:49:15.871Z,1610.00
2022-11-24T13:49:30.859Z,1609.00
2022-11-24T13:49:45.612Z,1604.00
2022-11-24T13:50:00.584Z,1605.00
2022-11-24T13:50:15.583Z,1606.00
2022-11-24T13:50:30.562Z,1606.00
2022-11-24T13:50:45.575Z,1606.00
2022-11-24T13:51:00.627Z,1606.00
2022-11-24T13:51:15.569Z,1605.00
2022-11-24T13:51:30.615Z,1602.00
2022-11-24T13:51:45.572Z,1601.00
2022-11-24T13:52:00.596Z,1601.00
2022-11-24T13:52:15.553Z,1601.00
2022-11-24T13:52:31.321Z,1601.00
2022-11-24T13:52:45.528Z,1600.00
2022-11-24T13:53:00.561Z,1596.00
2022-11-24T13:53:15.888Z,1597.00
2022-11-24T13:53:30.577Z,1597.00
2022-11-24T13:53:45.557Z,1612.00
2022-11-24T13:54:00.557Z,1679.00
2022-11-24T13:54:15.561Z,1675.00
2022-11-24T13:54:30.564Z,1681.00
2022-11-24T13:54:45.545Z,1675.00
2022-11-24T13:55:00.525Z,1673.00
2022-11-24T13:55:15.544Z,1673.00
2022-11-24T13:55:30.558Z,1675.00
2022-11-24T13:55:45.534Z,1682.00
2022-11-24T13:56:00.684Z,1684.00
2022-11-24T13:56:15.533Z,1684.00
2022-11-24T13:56:30.527Z,1687.00
2022-11-24T13:56:45.517Z,1691.00
2022-11-24T13:57:00.515Z,1694.00
2022-11-24T13:57:15.673Z,1693.00
2022-11-24T13:57:30.536Z,1691.00
2022-11-24T13:57:45.838Z,1690.00
2022-11-24T13:58:00.539Z,1691.00
2022-11-24T13:58:15.576Z,1690.00
2022-11-24T13:58:31.320Z,1687.00
2022-11-24T13:58:45.561Z,1685.00
2022-11-24T13:59:01.277Z,1683.00
2022-11-24T13:59:15.538Z,1679.00
2022-11-24T13:59:30.582Z,1677.00
2022-11-24T13:59:45.520Z,1678.00
2022-11-24T14:00:00.541Z,1678.00
2022-11-24T14:00:15.511Z,1677.00
2022-11-24T14:00:30.533Z,1675.00
2022-11-24T14:00:45.532Z,1673.00
2022-11-24T14:01:00.538Z,1673.00
2022-11-24T14:01:15.584Z,1671.00
2022-11-24T14:01:30.565Z,1673.00
2022-11-24T14:01:45.591Z,1674.00
2022-11-24T14:02:00.604Z,1674.00
2022-11-24T14:02:15.574Z,1673.00
2022-11-24T14:02:30.541Z,1674.00
2022-11-24T14:02:45.597Z,1678.00
2022-11-24T14:03:00.630Z,1683.00
2022-11-24T14:03:15.584Z,1691.00
2022-11-24T14:03:30.513Z,1696.00
2022-11-24T14:04:07.253Z,1701.00
2022-11-24T14:04:32.822Z,1709.00
2022-11-24T14:04:43.165Z,1711.00
2022-11-24T14:04:45.980Z,1708.00
2022-11-24T14:05:00.802Z,1704.00
2022-11-24T14:05:15.773Z,1705.00
2022-11-24T14:05:30.742Z,1703.00
2022-11-24T14:05:46.573Z,1702.00
2022-11-24T14:06:00.858Z,1701.00
2022-11-24T14:06:15.839Z,1701.00
2022-11-24T14:06:30.742Z,1702.00
2022-11-24T14:06:45.805Z,1704.00
2022-11-24T14:07:16.789Z,1710.00
2022-11-24T14:07:31.609Z,1711.00
2022-11-24T14:07:47.529Z,1715.00
2022-11-24T14:08:01.715Z,1718.00
2022-11-24T14:08:15.759Z,1718.00
2022-11-24T14:08:31.023Z,1720.00
2022-11-24T14:08:45.741Z,1721.00
2022-11-24T14:09:00.749Z,1721.00
2022-11-24T14:09:15.712Z,1721.00
2022-11-24T14:09:30.692Z,1719.00
2022-11-24T14:09:45.753Z,1717.00
2022-11-24T14:10:00.735Z,1717.00
2022-11-24T14:10:15.683Z,1715.00
2022-11-24T14:10:30.719Z,1716.00
2022-11-24T14:10:46.025Z,1721.00
2022-11-24T14:11:00.709Z,1726.00
2022-11-24T14:11:15.708Z,1731.00
2022-11-24T14:11:30.675Z,1744.00
2022-11-24T14:11:45.690Z,1754.00
2022-11-24T14:12:00.709Z,1750.00
2022-11-24T14:12:15.736Z,1750.00
2022-11-24T14:12:30.722Z,1751.00
2022-11-24T14:12:45.807Z,1752.00
2022-11-24T14:13:00.684Z,1755.00
2022-11-24T14:13:15.699Z,1761.00
2022-11-24T14:13:30.706Z,1770.00
2022-11-24T14:13:45.857Z,1774.00
2022-11-24T14:14:00.688Z,1782.00
2022-11-24T14:14:17.700Z,1782.00
2022-11-24T14:14:30.724Z,1787.00
2022-11-24T14:14:45.692Z,1791.00
2022-11-24T14:15:00.701Z,1796.00
2022-11-24T14:15:15.650Z,1801.00
2022-11-24T14:15:30.677Z,1804.00
2022-11-24T14:15:45.718Z,1802.00
2022-11-24T14:16:00.689Z,1798.00
2022-11-24T14:16:15.698Z,1794.00
2022-11-24T14:16:30.713Z,1786.00
2022-11-24T14:16:45.688Z,1776.00
2022-11-24T14:17:00.680Z,1767.00
2022-11-24T14:17:15.697Z,1760.00
2022-11-24T14:17:30.656Z,1755.00
2022-11-24T14:17:45.659Z,1734.00
2022-11-24T14:18:00.663Z,1690.00
2022-11-24T14:18:15.659Z,1681.00
2022-11-24T14:18:30.665Z,1684.00
2022-11-24T14:18:45.690Z,1692.00
2022-11-24T14:19:00.689Z,1696.00
2022-11-24T14:19:15.646Z,1699.00
2022-11-24T14:19:32.314Z,1699.00
2022-11-24T14:19:45.671Z,1694.00
2022-11-24T14:20:00.675Z,1681.00
2022-11-24T14:20:15.668Z,1596.00
2022-11-24T14:20:30.673Z,1575.00
2022-11-24T14:20:45.653Z,1556.00
2022-11-24T14:21:00.712Z,1545.00
2022-11-24T14:21:15.631Z,1538.00
2022-11-24T14:21:30.639Z,1536.00
2022-11-24T14:21:45.670Z,1541.00
2022-11-24T14:22:00.672Z,1552.00
2022-11-24T14:22:15.681Z,1604.00
2022-11-24T14:22:30.685Z,1619.00
2022-11-24T14:22:45.660Z,1625.00
2022-11-24T14:23:00.665Z,1620.00
2022-11-24T14:23:15.630Z,1612.00
2022-11-24T14:23:30.630Z,1595.00
2022-11-24T14:23:45.620Z,1573.00
2022-11-24T14:24:00.622Z,1564.00
2022-11-24T14:24:15.638Z,1563.00
2022-11-24T14:24:30.637Z,1567.00
2022-11-24T14:24:45.807Z,1570.00
2022-11-24T14:25:00.638Z,1566.00
2022-11-24T14:25:15.638Z,1559.00
2022-11-24T14:25:30.619Z,1556.00
2022-11-24T14:25:45.647Z,1554.00
2022-11-24T14:26:00.681Z,1549.00
2022-11-24T14:26:15.639Z,1545.00
2022-11-24T14:26:30.666Z,1541.00
2022-11-24T14:26:45.580Z,1527.00
2022-11-24T14:27:00.609Z,1518.00
2022-11-24T14:27:15.608Z,1518.00
2022-11-24T14:27:30.609Z,1523.00
2022-11-24T14:27:45.645Z,18193.00
2022-11-24T14:28:01.042Z,19201.00
2022-11-24T14:28:15.670Z,27075.00
2022-11-24T14:28:30.672Z,22847.00
2022-11-24T14:28:45.679Z,10955.00
2022-11-24T14:29:00.618Z,4232.00
2022-11-24T14:29:15.881Z,2410.00
2022-11-24T14:29:30.639Z,1783.00
2022-11-24T14:29:48.830Z,1606.00
2022-11-24T14:30:01.656Z,1566.00
2022-11-24T14:30:15.617Z,1539.00
2022-11-24T14:30:30.627Z,1511.00
2022-11-24T14:30:45.587Z,1503.00
2022-11-24T14:31:00.646Z,1511.00
2022-11-24T14:31:15.652Z,1508.00
2022-11-24T14:31:30.625Z,1474.00
2022-11-24T14:31:45.687Z,1477.00
2022-11-24T14:32:00.617Z,1487.00
2022-11-24T14:32:15.618Z,1483.00
2022-11-24T14:32:30.611Z,1478.00
2022-11-24T14:32:45.583Z,1474.00
2022-11-24T14:33:00.583Z,1470.00
2022-11-24T14:33:15.686Z,1456.00
2022-11-24T14:33:30.614Z,1448.00
2022-11-24T14:33:45.608Z,1441.00
2022-11-24T14:34:00.589Z,1436.00
2022-11-24T14:34:15.982Z,1435.00
2022-11-24T14:34:30.746Z,1435.00
2022-11-24T14:34:45.598Z,1434.00
2022-11-24T14:35:00.649Z,1430.00
2022-11-24T14:35:15.699Z,1423.00
2022-11-24T14:35:30.705Z,1419.00
2022-11-24T14:35:45.639Z,1416.00
2022-11-24T14:36:00.594Z,1415.00
2022-11-24T14:36:15.705Z,1411.00
2022-11-24T14:36:30.619Z,1406.00
2022-11-24T14:36:45.631Z,1397.00
2022-11-24T14:37:00.608Z,1389.00
2022-11-24T14:37:15.621Z,1384.00
2022-11-24T14:37:30.657Z,1377.00
2022-11-24T14:37:45.569Z,1363.00
2022-11-24T14:38:01.018Z,1355.00
2022-11-24T14:38:15.569Z,1355.00
2022-11-24T14:38:30.574Z,1355.00
2022-11-24T14:38:45.580Z,1360.00
2022-11-24T14:39:00.550Z,1366.00
2022-11-24T14:39:15.604Z,1369.00
2022-11-24T14:39:30.567Z,1371.00
2022-11-24T14:39:45.544Z,1367.00
2022-11-24T14:40:00.577Z,1362.00
2022-11-24T14:40:15.549Z,1357.00
2022-11-24T14:40:30.546Z,1352.00
2022-11-24T14:40:45.569Z,1319.00
2022-11-24T14:41:00.551Z,1303.00
2022-11-24T14:41:15.700Z,1299.00
2022-11-24T14:41:30.504Z,1303.00
2022-11-24T14:41:45.532Z,1303.00
2022-11-24T14:42:00.567Z,1302.00
2022-11-24T14:42:15.504Z,1298.00
2022-11-24T14:42:30.601Z,1296.00
2022-11-24T14:42:45.522Z,1290.00
2022-11-24T14:43:00.544Z,1291.00
2022-11-24T14:43:15.524Z,1289.00
2022-11-24T14:43:30.536Z,1290.00
2022-11-24T14:43:45.539Z,1289.00
2022-11-24T14:44:00.543Z,1288.00
2022-11-24T14:44:15.657Z,1295.00
2022-11-24T14:44:30.511Z,1296.00
2022-11-24T14:44:45.513Z,1291.00
2022-11-24T14:45:00.562Z,1288.00
2022-11-24T14:45:15.522Z,1278.00
2022-11-24T14:45:30.533Z,1267.00
2022-11-24T14:45:45.520Z,1261.00
2022-11-24T14:46:00.563Z,1259.00
2022-11-24T14:46:15.547Z,1256.00
2022-11-24T14:46:30.714Z,1253.00
2022-11-24T14:46:45.558Z,1247.00
2022-11-24T14:47:00.597Z,1242.00
2022-11-24T14:47:15.501Z,1241.00
2022-11-24T14:47:32.037Z,1240.00
2022-11-24T14:47:45.590Z,1244.00
2022-11-24T14:48:00.511Z,1247.00
2022-11-24T14:48:15.514Z,1244.00
2022-11-24T14:48:30.521Z,1237.00
2022-11-24T14:48:45.521Z,1234.00
2022-11-24T14:49:00.513Z,1229.00
2022-11-24T14:49:15.589Z,1223.00
2022-11-24T14:49:30.507Z,1211.00
2022-11-24T14:49:45.506Z,1176.00
2022-11-24T14:50:00.587Z,1173.00
2022-11-24T14:50:15.571Z,1169.00
2022-11-24T14:50:30.532Z,1170.00
2022-11-24T14:50:45.498Z,1180.00
2022-11-24T14:51:00.498Z,1248.00
2022-11-24T14:51:15.499Z,1244.00
2022-11-24T14:51:30.488Z,1227.00
2022-11-24T14:51:45.494Z,1220.00
2022-11-24T14:52:00.478Z,1215.00
2022-11-24T14:52:15.494Z,1398.00
2022-11-24T14:52:30.475Z,1463.00
2022-11-24T14:52:45.490Z,1304.00
2022-11-24T14:53:00.523Z,1249.00
2022-11-24T14:53:15.483Z,1229.00
2022-11-24T14:53:30.501Z,1205.00
2022-11-24T14:53:45.477Z,1190.00
2022-11-24T14:54:00.477Z,1156.00
2022-11-24T14:54:15.560Z,1138.00
2022-11-24T14:54:30.485Z,1148.00
2022-11-24T14:54:45.480Z,1152.00
2022-11-24T14:55:17.365Z,1154.00
2022-11-24T14:55:22.878Z,1155.00
2022-11-24T14:55:31.471Z,1160.00
2022-11-24T14:55:45.468Z,1161.00
2022-11-24T14:56:00.450Z,1158.00
2022-11-24T14:56:15.435Z,1153.00
2022-11-24T14:56:30.475Z,1120.00
2022-11-24T14:56:45.475Z,1094.00
2022-11-24T14:57:00.448Z,1085.00
2022-11-24T14:57:15.479Z,1080.00
2022-11-24T14:57:30.450Z,1079.00
2022-11-24T14:57:45.430Z,1088.00
2022-11-24T14:58:00.430Z,1101.00
2022-11-24T14:58:15.540Z,1115.00
2022-11-24T14:58:30.460Z,1112.00
2022-11-24T14:58:45.455Z,1080.00
2022-11-24T14:59:00.463Z,1042.00
2022-11-24T14:59:15.523Z,1056.00
2022-11-24T14:59:30.477Z,1064.00
2022-11-24T14:59:45.423Z,1069.00
2022-11-24T15:00:00.426Z,1064.00
2022-11-24T15:00:15.433Z,1066.00
2022-11-24T15:00:30.534Z,1070.00
2022-11-24T15:00:45.493Z,1063.00
2022-11-24T15:01:00.496Z,1060.00
2022-11-24T15:01:15.461Z,1054.00
2022-11-24T15:01:30.443Z,1050.00
2022-11-24T15:01:45.491Z,1045.00
2022-11-24T15:02:00.478Z,1042.00
2022-11-24T15:02:15.477Z,1040.00
2022-11-24T15:02:30.552Z,1040.00
2022-11-24T15:02:45.452Z,1038.00
2022-11-24T15:03:00.445Z,1034.00
2022-11-24T15:03:15.448Z,1037.00
2022-11-24T15:03:30.500Z,1040.00
2022-11-24T15:03:45.410Z,1070.00
2022-11-24T15:04:00.436Z,1046.00
2022-11-24T15:04:32.388Z,1027.00
2022-11-24T15:05:02.120Z,1020.00
2022-11-24T15:05:02.214Z,1016.00
2022-11-24T15:05:03.132Z,1018.00
2022-11-24T15:05:15.400Z,1015.00
2022-11-24T15:05:30.407Z,1013.00
2022-11-24T15:05:45.421Z,1010.00
2022-11-24T15:06:00.431Z,1008.00
2022-11-24T15:06:15.414Z,1002.00
2022-11-24T15:06:30.409Z,999.00
2022-11-24T15:06:45.440Z,998.00
2022-11-24T15:07:00.466Z,997.00
2022-11-24T15:07:15.514Z,999.00
2022-11-24T15:07:30.415Z,998.00
2022-11-24T15:07:45.513Z,998.00
2022-11-24T15:08:00.541Z,996.00
2022-11-24T15:08:15.404Z,996.00
2022-11-24T15:08:30.496Z,996.00
2022-11-24T15:08:45.411Z,995.00
2022-11-24T15:09:00.414Z,993.00
2022-11-24T15:09:15.457Z,990.00
2022-11-24T15:09:30.496Z,986.00
2022-11-24T15:09:45.380Z,982.00
2022-11-24T15:10:00.402Z,966.00
2022-11-24T15:10:15.396Z,952.00
2022-11-24T15:10:33.642Z,944.00
2022-11-24T15:10:45.404Z,943.00
2022-11-24T15:11:00.401Z,944.00
2022-11-24T15:11:15.394Z,944.00
2022-11-24T15:11:30.369Z,942.00
2022-11-24T15:11:45.368Z,938.00
2022-11-24T15:12:00.384Z,934.00
2022-11-24T15:12:15.385Z,928.00
2022-11-24T15:12:30.385Z,921.00
2022-11-24T15:12:45.389Z,910.00
2022-11-24T15:13:00.391Z,899.00
2022-11-24T15:13:15.375Z,899.00
2022-11-24T15:13:30.350Z,901.00
2022-11-24T15:13:45.383Z,900.00
2022-11-24T15:14:00.384Z,899.00
2022-11-24T15:14:15.381Z,902.00
2022-11-24T15:14:30.444Z,905.00
2022-11-24T15:14:45.434Z,908.00
2022-11-24T15:15:00.395Z,913.00
2022-11-24T15:15:15.337Z,918.00
2022-11-24T15:15:30.340Z,916.00
2022-11-24T15:15:45.330Z,910.00
2022-11-24T15:16:02.971Z,901.00
2022-11-24T15:16:15.446Z,860.00
2022-11-24T15:16:30.700Z,845.00
2022-11-24T15:16:45.428Z,858.00
2022-11-24T15:17:00.356Z,870.00
2022-11-24T15:17:15.338Z,876.00
2022-11-24T15:17:30.344Z,878.00
2022-11-24T15:17:45.362Z,874.00
2022-11-24T15:18:00.365Z,868.00
2022-11-24T15:18:15.355Z,866.00
2022-11-24T15:18:30.348Z,867.00
2022-11-24T15:18:45.349Z,868.00
2022-11-24T15:19:00.346Z,865.00
2022-11-24T15:19:15.355Z,862.00
2022-11-24T15:19:30.333Z,858.00
2022-11-24T15:19:45.563Z,852.00
2022-11-24T15:20:00.335Z,840.00
2022-11-24T15:20:15.382Z,833.00
2022-11-24T15:20:30.370Z,826.00
2022-11-24T15:20:45.390Z,824.00
2022-11-24T15:21:00.304Z,829.00
2022-11-24T15:21:19.163Z,833.00
2022-11-24T15:21:30.316Z,831.00
2022-11-24T15:21:45.556Z,835.00
2022-11-24T15:22:00.332Z,836.00
2022-11-24T15:22:15.324Z,834.00
2022-11-24T15:22:30.341Z,835.00
2022-11-24T15:22:45.327Z,840.00
2022-11-24T15:23:00.295Z,840.00
2022-11-24T15:23:15.328Z,841.00
2022-11-24T15:23:30.289Z,841.00
2022-11-24T15:23:45.294Z,841.00
2022-11-24T15:24:00.314Z,840.00
2022-11-24T15:24:15.314Z,842.00
2022-11-24T15:24:30.335Z,842.00
2022-11-24T15:24:45.301Z,842.00
2022-11-24T15:25:00.289Z,837.00
2022-11-24T15:25:15.369Z,836.00
2022-11-24T15:25:30.297Z,833.00
2022-11-24T15:25:45.308Z,828.00
2022-11-24T15:26:00.309Z,816.00
2022-11-24T15:26:15.296Z,802.00
2022-11-24T15:26:34.093Z,791.00
2022-11-24T15:26:46.311Z,781.00
2022-11-24T15:27:00.275Z,783.00
2022-11-24T15:27:15.260Z,782.00
2022-11-24T15:27:30.276Z,782.00
2022-11-24T15:27:45.331Z,782.00
2022-11-24T15:28:00.300Z,784.00
2022-11-24T15:28:15.269Z,788.00
2022-11-24T15:28:30.300Z,789.00
2022-11-24T15:28:45.282Z,792.00
2022-11-24T15:29:00.275Z,797.00
2022-11-24T15:29:15.350Z,814.00
2022-11-24T15:29:30.275Z,815.00
2022-11-24T15:29:45.329Z,814.00
2022-11-24T15:30:01.957Z,816.00
2022-11-24T15:30:15.305Z,822.00
2022-11-24T15:30:30.336Z,828.00
2022-11-24T15:30:45.279Z,836.00
2022-11-24T15:31:00.315Z,839.00
2022-11-24T15:31:15.336Z,841.00
2022-11-24T15:31:30.341Z,840.00
2022-11-24T15:31:50.819Z,841.00
2022-11-24T15:32:01.311Z,845.00
2022-11-24T15:32:15.303Z,854.00
2022-11-24T15:32:30.264Z,866.00
2022-11-24T15:32:45.284Z,905.00
2022-11-24T15:33:00.253Z,938.00
2022-11-24T15:33:15.334Z,939.00
2022-11-24T15:33:30.276Z,936.00
2022-11-24T15:33:45.269Z,931.00
2022-11-24T15:34:00.267Z,932.00
2022-11-24T15:34:15.232Z,927.00